createdAt,value
2023-04-21T00:00:27.249Z,94583.13
2023-04-21T00:02:54.408Z,94557.41
2023-04-21T00:05:21.771Z,94571.84
2023-04-21T00:07:48.871Z,94569.97
2023-04-21T00:10:15.995Z,94561.66
2023-04-21T00:12:43.032Z,94562.63
2023-04-21T00:15:11.289Z,94562.78
2023-04-21T00:17:38.290Z,94567.41
2023-04-21T00:20:07.228Z,94566.84
2023-04-21T00:22:34.158Z,94574.38
2023-04-21T00:25:01.110Z,94569.81
2023-04-21T00:27:31.512Z,94553.75
2023-04-21T00:29:58.465Z,94572.25
2023-04-21T00:32:25.551Z,94529.09
2023-04-21T00:34:52.878Z,94577.34
2023-04-21T00:37:19.866Z,94516.19
2023-04-21T00:39:47.149Z,94572.25
2023-04-21T00:42:17.069Z,94570.06
2023-04-21T00:44:44.437Z,94573.81
2023-04-21T00:47:11.718Z,94567.97
2023-04-21T00:49:38.894Z,94561.81
2023-04-21T00:52:06.546Z,94567.69
2023-04-21T00:54:35.701Z,94563.97
2023-04-21T00:57:03.840Z,94542.47
2023-04-21T00:59:31.185Z,94555.13
2023-04-21T01:01:58.321Z,94546.44
2023-04-21T01:04:25.778Z,94555.81
2023-04-21T01:06:52.958Z,94559.53
2023-04-21T01:09:21.270Z,94557.69
2023-04-21T01:12:04.130Z,94529.81
2023-04-21T01:14:34.241Z,94542.09
2023-04-21T01:17:01.453Z,94558.44
2023-04-21T01:19:31.432Z,94444.94
2023-04-21T01:22:00.740Z,94557.88
2023-04-21T01:24:45.014Z,94553.84
2023-04-21T01:27:16.557Z,94549.78
2023-04-21T01:29:43.845Z,94551.63
2023-04-21T01:32:13.575Z,94555.66
2023-04-21T01:34:43.125Z,94559.94
2023-04-21T01:37:13.580Z,94560.38
2023-04-21T01:39:52.098Z,94550.28
2023-04-21T01:42:19.427Z,94551.38
2023-04-21T01:44:47.092Z,94550.34
2023-04-21T01:47:18.627Z,94548.72
2023-04-21T01:49:46.603Z,94553.00
2023-04-21T01:52:13.461Z,94451.88
2023-04-21T01:54:40.820Z,94526.13
2023-04-21T01:57:08.114Z,94549.72
2023-04-21T01:59:35.618Z,94546.75
2023-04-21T02:02:03.468Z,94525.53
2023-04-21T02:04:34.040Z,94545.59
2023-04-21T02:07:01.215Z,94551.16
2023-04-21T02:09:28.401Z,94553.00
2023-04-21T02:11:57.172Z,94552.13
2023-04-21T02:14:25.996Z,94550.56
2023-04-21T02:16:53.569Z,94548.16
2023-04-21T02:19:21.004Z,94552.16
2023-04-21T02:21:48.144Z,94541.97
2023-04-21T02:24:15.222Z,94551.28
2023-04-21T02:26:42.307Z,94539.00
2023-04-21T02:29:09.398Z,94541.41
2023-04-21T02:31:53.789Z,94541.03
2023-04-21T02:34:26.451Z,94543.06
2023-04-21T02:36:53.523Z,94517.66
2023-04-21T02:39:21.124Z,94540.97
2023-04-21T02:41:48.389Z,94549.31
2023-04-21T02:44:15.360Z,94482.75
2023-04-21T02:46:43.324Z,94548.75
2023-04-21T02:49:10.980Z,94541.38
2023-04-21T02:51:37.917Z,94522.34
2023-04-21T02:54:05.433Z,94540.19
2023-04-21T02:56:36.802Z,94537.22
2023-04-21T02:59:04.978Z,94549.31
2023-04-21T03:01:31.934Z,94508.84
2023-04-21T03:04:01.502Z,94545.34
2023-04-21T03:06:28.778Z,94551.53
2023-04-21T03:08:56.849Z,94547.50
2023-04-21T03:11:24.258Z,94540.25
2023-04-21T03:14:02.915Z,94556.63
2023-04-21T03:16:30.209Z,94543.63
2023-04-21T03:18:57.209Z,94547.00
2023-04-21T03:21:25.442Z,94517.00
2023-04-21T03:23:53.037Z,94537.91
2023-04-21T03:26:20.853Z,94547.31
2023-04-21T03:28:48.275Z,94527.28
2023-04-21T03:31:15.327Z,94555.94
2023-04-21T03:33:42.617Z,94558.28
2023-04-21T03:36:10.330Z,94546.06
2023-04-21T03:38:38.884Z,94553.63
2023-04-21T03:41:06.119Z,94558.75
2023-04-21T03:43:33.345Z,94558.22
2023-04-21T03:46:00.322Z,94554.72
2023-04-21T03:48:28.847Z,94565.19
2023-04-21T03:50:55.878Z,94555.72
2023-04-21T03:53:23.132Z,94575.44
2023-04-21T03:55:50.902Z,94573.00
2023-04-21T03:58:18.589Z,94574.16
2023-04-21T04:00:45.489Z,94552.69
2023-04-21T04:03:12.784Z,94331.19
2023-04-21T04:05:40.126Z,94578.22
2023-04-21T04:08:07.383Z,94576.13
2023-04-21T04:10:34.673Z,94589.78
2023-04-21T04:13:01.579Z,94584.38
2023-04-21T04:15:28.691Z,94582.56
2023-04-21T04:17:55.954Z,94590.41
2023-04-21T04:20:23.293Z,94580.53
2023-04-21T04:22:50.581Z,94588.06
2023-04-21T04:25:17.450Z,94548.69
2023-04-21T04:27:45.100Z,94589.66
2023-04-21T04:30:13.529Z,94583.28
2023-04-21T04:32:41.614Z,94590.47
2023-04-21T04:35:10.294Z,94594.75
2023-04-21T04:37:37.728Z,94606.59
2023-04-21T04:40:17.604Z,94594.38
2023-04-21T04:42:47.027Z,94603.69
2023-04-21T04:45:14.038Z,94606.44
2023-04-21T04:47:41.100Z,94603.75
2023-04-21T04:50:08.632Z,94603.53
2023-04-21T04:52:35.770Z,94607.84
2023-04-21T04:55:02.866Z,94613.44
2023-04-21T04:57:31.701Z,94589.56
2023-04-21T04:59:58.894Z,94612.38
2023-04-21T05:02:26.021Z,94582.13
2023-04-21T05:04:53.498Z,94609.22
2023-04-21T05:07:20.876Z,94608.13
2023-04-21T05:09:47.957Z,94621.78
2023-04-21T05:12:14.862Z,94618.84
2023-04-21T05:14:41.945Z,94616.44
2023-04-21T05:17:09.065Z,94621.00
2023-04-21T05:19:37.590Z,94623.13
2023-04-21T05:22:06.610Z,94614.28
2023-04-21T05:24:34.682Z,94621.50
2023-04-21T05:27:03.115Z,94623.13
2023-04-21T05:29:31.226Z,94623.91
2023-04-21T05:31:58.397Z,94619.91
2023-04-21T05:34:25.421Z,94615.84
2023-04-21T05:36:52.666Z,94610.72
2023-04-21T05:39:19.691Z,94624.13
2023-04-21T05:41:46.798Z,94622.47
2023-04-21T05:44:13.839Z,94609.06
2023-04-21T05:46:41.010Z,94624.31
2023-04-21T05:49:08.328Z,94598.94
2023-04-21T05:51:35.393Z,94625.19
2023-04-21T05:54:02.383Z,94627.41
2023-04-21T05:56:29.289Z,94622.59
2023-04-21T05:58:56.584Z,94629.56
2023-04-21T06:01:23.491Z,94606.53
2023-04-21T06:03:50.648Z,94619.63
2023-04-21T06:06:18.194Z,94619.66
2023-04-21T06:08:45.293Z,94616.19
2023-04-21T06:11:12.571Z,94608.13
2023-04-21T06:13:41.101Z,94617.78
2023-04-21T06:16:10.012Z,94621.25
2023-04-21T06:18:37.000Z,94616.16
2023-04-21T06:21:04.561Z,94616.91
2023-04-21T06:23:31.533Z,94617.47
2023-04-21T06:26:00.517Z,94609.41
2023-04-21T06:28:27.540Z,94618.44
2023-04-21T06:30:54.608Z,94614.91
2023-04-21T06:33:21.617Z,94606.72
2023-04-21T06:35:48.606Z,94611.09
2023-04-21T06:38:15.963Z,94606.88
2023-04-21T06:40:43.275Z,94605.81
2023-04-21T06:43:10.358Z,94596.41
2023-04-21T06:45:37.580Z,94598.41
2023-04-21T06:48:05.074Z,94597.06
2023-04-21T06:50:32.236Z,94581.44
2023-04-21T06:52:59.238Z,94595.56
2023-04-21T06:55:26.583Z,94600.41
2023-04-21T06:57:53.619Z,94580.41
2023-04-21T07:00:21.224Z,94574.53
2023-04-21T07:02:48.356Z,94592.50
2023-04-21T07:05:15.818Z,94584.41
2023-04-21T07:07:42.791Z,94594.50
2023-04-21T07:10:10.144Z,94601.63
2023-04-21T07:12:37.108Z,94589.31
2023-04-21T07:15:04.969Z,94606.34
2023-04-21T07:17:32.601Z,94588.00
2023-04-21T07:19:59.699Z,94603.50
2023-04-21T07:22:26.789Z,94592.25
2023-04-21T07:24:53.789Z,94593.03
2023-04-21T07:27:20.817Z,94593.91
2023-04-21T07:29:47.912Z,94591.97
2023-04-21T07:32:14.758Z,94550.41
2023-04-21T07:34:41.893Z,94575.09
2023-04-21T07:37:09.135Z,94586.41
2023-04-21T07:39:36.275Z,94587.72
2023-04-21T07:42:03.325Z,94590.31
2023-04-21T07:44:30.533Z,94594.78
2023-04-21T07:46:57.484Z,94587.63
2023-04-21T07:49:24.452Z,94595.34
2023-04-21T07:51:52.066Z,94573.25
2023-04-21T07:54:19.082Z,94506.03
2023-04-21T07:56:46.364Z,94595.31
2023-04-21T07:59:13.333Z,94576.59
2023-04-21T08:01:40.805Z,94591.84
2023-04-21T08:04:07.870Z,94562.06
2023-04-21T08:06:35.077Z,94593.50
2023-04-21T08:09:02.541Z,94590.13
2023-04-21T08:11:29.456Z,94599.31
2023-04-21T08:13:57.725Z,94586.72
2023-04-21T08:16:24.833Z,94586.22
2023-04-21T08:18:51.869Z,94583.72
2023-04-21T08:21:19.867Z,94576.09
2023-04-21T08:23:47.077Z,94572.63
2023-04-21T08:26:14.198Z,94592.72
2023-04-21T08:28:42.425Z,94576.03
2023-04-21T08:31:09.522Z,94581.44
2023-04-21T08:33:41.337Z,94589.88
2023-04-21T08:36:26.010Z,94536.66
2023-04-21T08:38:56.349Z,94588.13
2023-04-21T08:41:24.376Z,94570.06
2023-04-21T08:43:51.861Z,94582.53
2023-04-21T08:46:19.398Z,94554.22
2023-04-21T08:48:47.668Z,94585.69
2023-04-21T08:51:24.699Z,94584.03
2023-04-21T08:53:52.217Z,94574.44
2023-04-21T08:56:19.442Z,94584.13
2023-04-21T08:58:46.531Z,94580.34
2023-04-21T09:01:13.836Z,94552.16
2023-04-21T09:03:41.031Z,94560.69
2023-04-21T09:06:09.941Z,94563.38
2023-04-21T09:08:40.009Z,94560.28
2023-04-21T09:11:07.080Z,94555.41
2023-04-21T09:13:36.468Z,94542.81
2023-04-21T09:16:16.746Z,94549.63
2023-04-21T09:18:44.694Z,94539.94
2023-04-21T09:21:13.977Z,94543.78
2023-04-21T09:23:51.684Z,94542.31
2023-04-21T09:26:23.034Z,94549.66
2023-04-21T09:28:53.178Z,94546.69
2023-04-21T09:31:24.768Z,94527.63
2023-04-21T09:33:59.491Z,94519.41
2023-04-21T09:36:30.778Z,94536.16
2023-04-21T09:41:33.037Z,94497.72
2023-04-21T09:44:01.653Z,94519.97
2023-04-21T09:46:32.710Z,94512.94
2023-04-21T09:49:04.604Z,94506.97
2023-04-21T09:51:56.150Z,94519.75
2023-04-21T09:54:29.745Z,94515.56
2023-04-21T09:57:03.842Z,94528.47
2023-04-21T09:59:37.229Z,94522.50
2023-04-21T10:02:08.411Z,94505.44
2023-04-21T10:04:38.353Z,94519.06
2023-04-21T10:07:06.704Z,94519.84
2023-04-21T10:09:40.536Z,94511.25
2023-04-21T10:12:09.799Z,94516.91
2023-04-21T10:14:37.425Z,94498.66
2023-04-21T10:17:10.187Z,94514.78
2023-04-21T10:19:47.814Z,94511.19
2023-04-21T10:22:14.854Z,94513.75
2023-04-21T10:24:43.279Z,94507.97
2023-04-21T10:27:32.106Z,94421.69
2023-04-21T10:29:59.944Z,94522.25
2023-04-21T10:32:41.802Z,94491.38
2023-04-21T10:35:14.890Z,94502.94
2023-04-21T10:37:44.687Z,94505.03
2023-04-21T10:40:43.722Z,94496.66
2023-04-21T10:43:48.137Z,94505.25
2023-04-21T10:46:35.564Z,94506.56
2023-04-21T10:49:09.183Z,94512.25
2023-04-21T10:51:59.091Z,94502.16
2023-04-21T10:54:28.013Z,94443.72
2023-04-21T10:56:56.311Z,94513.28
2023-04-21T10:59:24.440Z,94500.16
2023-04-21T11:01:53.062Z,94494.34
2023-04-21T11:04:22.749Z,94501.44
2023-04-21T11:07:11.796Z,94493.03
2023-04-21T11:09:41.155Z,94495.78
2023-04-21T11:12:10.797Z,94505.13
2023-04-21T11:14:39.697Z,94502.34
2023-04-21T11:17:18.495Z,94506.22
2023-04-21T11:19:47.633Z,94487.22
2023-04-21T11:22:17.031Z,94499.53
2023-04-21T11:24:51.286Z,94484.78
2023-04-21T11:27:18.246Z,94494.69
2023-04-21T11:29:46.534Z,94482.16
2023-04-21T11:32:14.306Z,94475.81
2023-04-21T11:34:41.786Z,94484.00
2023-04-21T11:37:10.827Z,94500.84
2023-04-21T11:39:41.170Z,94493.47
2023-04-21T11:42:08.309Z,94493.81
2023-04-21T11:44:43.239Z,94482.66
2023-04-21T11:47:26.914Z,94503.50
2023-04-21T11:49:56.342Z,94497.47
2023-04-21T11:52:36.100Z,94502.38
2023-04-21T11:55:12.278Z,94494.22
2023-04-21T11:57:41.015Z,94484.00
2023-04-21T12:00:12.000Z,94489.50
2023-04-21T12:02:40.022Z,94496.91
2023-04-21T12:05:09.814Z,94409.13
2023-04-21T12:07:45.088Z,94497.44
2023-04-21T12:10:13.571Z,94499.66
2023-04-21T12:12:42.253Z,94491.94
2023-04-21T12:15:11.961Z,94514.34
2023-04-21T12:17:47.008Z,94493.06
2023-04-21T12:20:23.608Z,94517.34
2023-04-21T12:22:51.190Z,94488.91
2023-04-21T12:25:18.556Z,94439.72
2023-04-21T12:27:58.779Z,94498.81
2023-04-21T12:30:25.903Z,94499.88
2023-04-21T12:32:54.557Z,94495.16
2023-04-21T12:35:22.881Z,94499.88
2023-04-21T12:37:49.935Z,94499.72
2023-04-21T12:40:17.123Z,94498.66
2023-04-21T12:42:44.016Z,94486.56
2023-04-21T12:45:11.546Z,94482.34
2023-04-21T12:47:39.404Z,94487.06
2023-04-21T12:50:07.490Z,94488.69
2023-04-21T12:52:34.929Z,94369.44
2023-04-21T12:55:02.204Z,94501.97
2023-04-21T12:57:31.981Z,94495.47
2023-04-21T12:59:59.202Z,94487.59
2023-04-21T13:02:26.383Z,94481.22
2023-04-21T13:04:54.028Z,94495.47
2023-04-21T13:07:22.709Z,94481.28
2023-04-21T13:09:49.740Z,94485.50
2023-04-21T13:12:17.433Z,94464.28
2023-04-21T13:14:44.399Z,94471.75
2023-04-21T13:17:11.751Z,94481.59
2023-04-21T13:19:38.872Z,94485.59
2023-04-21T13:22:05.975Z,94480.50
2023-04-21T13:24:33.684Z,94475.41
2023-04-21T13:27:03.961Z,94478.00
2023-04-21T13:29:34.165Z,94457.84
2023-04-21T13:32:02.497Z,94460.88
2023-04-21T13:34:31.551Z,94479.97
2023-04-21T13:36:59.250Z,94475.38
2023-04-21T13:39:26.698Z,94461.38
2023-04-21T13:41:54.861Z,94476.16
2023-04-21T13:44:22.036Z,94463.75
2023-04-21T13:46:50.697Z,94473.00
2023-04-21T13:49:18.222Z,94456.09
2023-04-21T13:51:52.281Z,94454.78
2023-04-21T13:54:31.488Z,94453.91
2023-04-21T13:56:59.050Z,94466.59
2023-04-21T13:59:26.184Z,94463.97
2023-04-21T14:01:53.336Z,94459.44
2023-04-21T14:04:22.352Z,94470.59
2023-04-21T14:06:50.893Z,94467.16
2023-04-21T14:09:17.919Z,94462.69
2023-04-21T14:11:44.945Z,94449.00
2023-04-21T14:14:11.869Z,94445.03
2023-04-21T14:16:39.219Z,94442.66
2023-04-21T14:19:06.970Z,94300.75
2023-04-21T14:21:34.717Z,94437.19
2023-04-21T14:24:02.068Z,94443.59
2023-04-21T14:26:29.152Z,94426.91
2023-04-21T14:28:56.625Z,94395.09
2023-04-21T14:31:23.643Z,94441.13
2023-04-21T14:33:50.850Z,94417.25
2023-04-21T14:36:18.188Z,94433.53
2023-04-21T14:38:45.278Z,94429.25
2023-04-21T14:41:13.053Z,94418.69
2023-04-21T14:43:40.204Z,94428.44
2023-04-21T14:46:07.474Z,94415.56
2023-04-21T14:48:34.866Z,94419.44
2023-04-21T14:51:02.148Z,94436.69
2023-04-21T14:53:30.448Z,94449.13
2023-04-21T14:55:58.290Z,94448.47
2023-04-21T14:58:25.586Z,94447.09
2023-04-21T15:00:52.697Z,94466.19
2023-04-21T15:03:19.842Z,94405.56
2023-04-21T15:05:47.067Z,94458.59
2023-04-21T15:08:18.109Z,94462.41
2023-04-21T15:10:56.899Z,94451.41
2023-04-21T15:13:24.097Z,94437.56
2023-04-21T15:15:54.255Z,94414.25
2023-04-21T15:18:21.150Z,94457.69
2023-04-21T15:20:48.410Z,94453.94
2023-04-21T15:23:15.663Z,94450.91
2023-04-21T15:25:43.224Z,94456.94
2023-04-21T15:28:10.239Z,94458.50
2023-04-21T15:30:37.837Z,94439.38
2023-04-21T15:33:05.327Z,94463.25
2023-04-21T15:35:35.536Z,94444.34
2023-04-21T15:38:03.361Z,94455.59
2023-04-21T15:40:30.496Z,94448.75
2023-04-21T15:42:57.712Z,94451.44
2023-04-21T15:45:24.773Z,94439.09
2023-04-21T15:47:51.835Z,94443.91
2023-04-21T15:50:18.841Z,94456.50
2023-04-21T15:52:45.996Z,94448.28
2023-04-21T15:55:17.562Z,94449.97
2023-04-21T15:57:56.939Z,94456.34
2023-04-21T16:00:24.677Z,94452.59
2023-04-21T16:02:52.042Z,94454.63
2023-04-21T16:05:20.035Z,94457.41
2023-04-21T16:07:47.287Z,94450.88
2023-04-21T16:10:17.807Z,94445.53
2023-04-21T16:12:45.897Z,94442.88
2023-04-21T16:15:23.882Z,94453.34
2023-04-21T16:17:53.136Z,94453.19
2023-04-21T16:20:20.225Z,94453.81
2023-04-21T16:22:50.217Z,94464.84
2023-04-21T16:25:20.142Z,94452.63
2023-04-21T16:27:48.206Z,94457.09
2023-04-21T16:30:15.552Z,94461.63
2023-04-21T16:32:42.749Z,94465.53
2023-04-21T16:35:11.430Z,94466.78
2023-04-21T16:37:40.623Z,94466.69
2023-04-21T16:40:08.981Z,94475.69
2023-04-21T16:42:36.587Z,94470.78
2023-04-21T16:45:05.895Z,94484.16
2023-04-21T16:47:41.045Z,94478.03
2023-04-21T16:50:10.122Z,94476.28
2023-04-21T16:52:37.259Z,94480.25
2023-04-21T16:55:04.602Z,94487.81
2023-04-21T16:57:33.340Z,94480.56
2023-04-21T17:00:01.178Z,94489.78
2023-04-21T17:02:34.391Z,94497.81
2023-04-21T17:05:01.575Z,94483.03
2023-04-21T17:07:32.257Z,94498.44
2023-04-21T17:09:59.600Z,94469.91
2023-04-21T17:12:26.589Z,94496.28
2023-04-21T17:14:53.651Z,94486.94
2023-04-21T17:17:20.648Z,94492.91
2023-04-21T17:19:48.457Z,94483.63
2023-04-21T17:22:15.930Z,94494.19
2023-04-21T17:24:52.398Z,94480.72
2023-04-21T17:27:20.907Z,94502.22
2023-04-21T17:29:48.530Z,94490.88
2023-04-21T17:32:15.878Z,94492.50
2023-04-21T17:34:44.066Z,94502.72
2023-04-21T17:37:11.600Z,94497.97
2023-04-21T17:39:38.814Z,94503.97
2023-04-21T17:42:05.970Z,94517.66
2023-04-21T17:44:33.032Z,94522.28
2023-04-21T17:47:00.062Z,94513.53
2023-04-21T17:49:27.183Z,94519.97
2023-04-21T17:51:54.476Z,94523.22
2023-04-21T17:54:21.719Z,94521.13
2023-04-21T17:56:48.716Z,94530.28
2023-04-21T17:59:15.782Z,94509.72
2023-04-21T18:02:01.424Z,94537.31
2023-04-21T18:04:30.755Z,94545.66
2023-04-21T18:06:58.978Z,94539.50
2023-04-21T18:09:26.282Z,94536.59
2023-04-21T18:11:53.610Z,94548.13
2023-04-21T18:14:21.147Z,94545.72
2023-04-21T18:16:48.250Z,94561.50
2023-04-21T18:19:18.267Z,94552.16
2023-04-21T18:21:47.980Z,94571.72
2023-04-21T18:24:15.279Z,94576.53
2023-04-21T18:26:43.684Z,94580.28
2023-04-21T18:29:10.936Z,94575.47
2023-04-21T18:31:38.456Z,94579.75
2023-04-21T18:34:06.218Z,94572.78
2023-04-21T18:36:34.409Z,94569.03
2023-04-21T18:39:02.203Z,94571.69
2023-04-21T18:41:29.407Z,94584.03
2023-04-21T18:43:56.999Z,94589.91
2023-04-21T18:46:24.232Z,94563.41
2023-04-21T18:48:51.351Z,94585.63
2023-04-21T18:51:18.376Z,94585.91
2023-04-21T18:53:46.374Z,94590.47
2023-04-21T18:56:13.341Z,94574.38
2023-04-21T18:58:40.552Z,94600.09
2023-04-21T19:01:08.157Z,94596.88
2023-04-21T19:03:35.756Z,94589.38
2023-04-21T19:06:02.988Z,94598.78
2023-04-21T19:08:41.319Z,94600.63
2023-04-21T19:11:10.304Z,94602.78
2023-04-21T19:13:37.596Z,94559.41
2023-04-21T19:16:05.434Z,94596.59
2023-04-21T19:18:32.654Z,94591.53
2023-04-21T19:21:00.019Z,94571.66
2023-04-21T19:23:27.038Z,94590.44
2023-04-21T19:25:57.465Z,94586.41
2023-04-21T19:28:24.609Z,94591.50
2023-04-21T19:30:51.613Z,94597.91
2023-04-21T19:33:18.674Z,94596.25
2023-04-21T19:35:46.227Z,94600.53
2023-04-21T19:38:14.438Z,94596.00
2023-04-21T19:40:44.478Z,94597.59
2023-04-21T19:43:11.855Z,94598.41
2023-04-21T19:45:39.135Z,94594.38
2023-04-21T19:48:07.596Z,94603.16
2023-04-21T19:50:35.885Z,94603.94
2023-04-21T19:53:03.734Z,94598.81
2023-04-21T19:55:32.210Z,94592.16
2023-04-21T19:57:59.273Z,94587.88
2023-04-21T20:00:26.529Z,94598.56
2023-04-21T20:02:55.173Z,94540.66
2023-04-21T20:05:22.370Z,94606.00
2023-04-21T20:07:49.462Z,94604.59
2023-04-21T20:10:16.536Z,94609.16
2023-04-21T20:12:43.521Z,94602.16
2023-04-21T20:15:11.986Z,94590.53
2023-04-21T20:17:39.080Z,94595.16
2023-04-21T20:20:07.124Z,94612.50
2023-04-21T20:22:34.316Z,94622.13
2023-04-21T20:25:01.299Z,94562.66
2023-04-21T20:27:30.798Z,94623.75
2023-04-21T20:29:57.942Z,94617.34
2023-04-21T20:32:25.098Z,94627.44
2023-04-21T20:34:53.458Z,94624.75
2023-04-21T20:37:20.542Z,94620.97
2023-04-21T20:39:47.679Z,94604.91
2023-04-21T20:42:14.889Z,94613.25
2023-04-21T20:44:43.146Z,94618.28
2023-04-21T20:47:11.290Z,94621.78
2023-04-21T20:49:39.849Z,94605.84
2023-04-21T20:52:07.268Z,94623.28
2023-04-21T20:54:35.001Z,94626.41
2023-04-21T20:57:02.663Z,94626.69
2023-04-21T20:59:29.872Z,94623.66
2023-04-21T21:01:56.854Z,94643.13
2023-04-21T21:04:24.004Z,94634.03
2023-04-21T21:06:51.253Z,94646.56
2023-04-21T21:09:19.204Z,94646.59
2023-04-21T21:11:46.697Z,94650.16
2023-04-21T21:14:14.181Z,94639.50
2023-04-21T21:16:41.825Z,94655.63
2023-04-21T21:19:09.390Z,94642.91
2023-04-21T21:21:36.581Z,94638.19
2023-04-21T21:24:03.876Z,94651.53
2023-04-21T21:26:31.016Z,94645.19
2023-04-21T21:28:58.253Z,94635.00
2023-04-21T21:31:25.718Z,94645.63
2023-04-21T21:33:52.784Z,94657.81
2023-04-21T21:36:20.102Z,94640.94
2023-04-21T21:38:47.035Z,94657.66
2023-04-21T21:41:14.714Z,94656.84
2023-04-21T21:43:41.697Z,94632.44
2023-04-21T21:46:09.102Z,94630.03
2023-04-21T21:48:36.231Z,94656.53
2023-04-21T21:51:04.375Z,94644.19
2023-04-21T21:53:32.606Z,94658.09
2023-04-21T21:56:00.199Z,94653.06
2023-04-21T21:58:27.400Z,94646.91
2023-04-21T22:00:54.863Z,94642.06
2023-04-21T22:03:22.665Z,94658.66
2023-04-21T22:05:49.890Z,94651.38
2023-04-21T22:08:16.906Z,94663.34
2023-04-21T22:10:43.872Z,94651.16
2023-04-21T22:13:12.043Z,94669.19
2023-04-21T22:15:39.358Z,94669.44
2023-04-21T22:18:08.046Z,94661.69
2023-04-21T22:20:36.100Z,94655.16
2023-04-21T22:23:04.078Z,94663.16
2023-04-21T22:25:31.076Z,94666.22
2023-04-21T22:27:59.164Z,94678.75
2023-04-21T22:30:26.337Z,94636.31
2023-04-21T22:32:53.371Z,94590.47
2023-04-21T22:35:20.980Z,94676.28
2023-04-21T22:37:48.073Z,94679.19
2023-04-21T22:40:15.115Z,94673.31
2023-04-21T22:42:42.348Z,94677.91
2023-04-21T22:45:10.064Z,94666.00
2023-04-21T22:47:37.101Z,94695.63
2023-04-21T22:50:04.697Z,94688.50
2023-04-21T22:52:31.908Z,94692.56
2023-04-21T22:54:58.856Z,94691.78
2023-04-21T22:57:26.160Z,94695.09
2023-04-21T22:59:53.168Z,94697.59
2023-04-21T23:02:20.315Z,94665.81
2023-04-21T23:04:47.277Z,94669.53
2023-04-21T23:07:14.319Z,94687.97
2023-04-21T23:09:41.405Z,94689.06
2023-04-21T23:12:08.637Z,94664.13
2023-04-21T23:14:35.687Z,94667.81
2023-04-21T23:17:03.055Z,94678.75
2023-04-21T23:19:30.134Z,94683.47
2023-04-21T23:21:58.694Z,94682.75
2023-04-21T23:24:25.704Z,94652.63
2023-04-21T23:26:52.689Z,94678.13
2023-04-21T23:29:19.826Z,94677.28
2023-04-21T23:31:46.917Z,94624.28
2023-04-21T23:34:14.973Z,94676.38
2023-04-21T23:36:42.020Z,94670.63
2023-04-21T23:39:09.972Z,94680.69
2023-04-21T23:41:37.450Z,94675.75
2023-04-21T23:44:04.448Z,94683.75
2023-04-21T23:46:31.797Z,94680.00
2023-04-21T23:48:58.974Z,94678.63
2023-04-21T23:51:27.055Z,94656.28
2023-04-21T23:53:54.120Z,94673.69
2023-04-21T23:56:21.287Z,94677.09
2023-04-21T23:58:48.242Z,94675.97
